createdAt,value
2022-10-06T00:02:25.051Z,0.30
2022-10-06T00:04:51.993Z,0.50
2022-10-06T00:07:19.099Z,0.45
2022-10-06T00:09:45.986Z,0.37
2022-10-06T00:12:13.347Z,0.40
2022-10-06T00:14:40.498Z,0.50
2022-10-06T00:17:07.722Z,0.50
2022-10-06T00:19:34.649Z,0.43
2022-10-06T00:22:01.588Z,0.30
2022-10-06T00:24:28.515Z,0.40
2022-10-06T00:26:55.467Z,0.30
2022-10-06T00:29:22.514Z,0.95
2022-10-06T00:31:49.386Z,0.50
2022-10-06T00:34:16.310Z,0.40
2022-10-06T00:36:43.944Z,0.60
2022-10-06T00:39:10.880Z,0.57
2022-10-06T00:41:39.461Z,0.40
2022-10-06T00:44:06.380Z,0.22
2022-10-06T00:46:53.738Z,0.43
2022-10-06T00:49:36.306Z,0.55
2022-10-06T00:52:07.413Z,0.40
2022-10-06T00:54:36.277Z,0.32
2022-10-06T00:57:04.691Z,0.30
2022-10-06T00:59:31.701Z,0.35
2022-10-06T01:02:50.685Z,0.40
2022-10-06T01:05:27.260Z,0.85
2022-10-06T01:07:54.500Z,0.57
2022-10-06T01:10:21.606Z,0.82
2022-10-06T01:12:48.544Z,0.70
2022-10-06T01:15:16.656Z,0.85
2022-10-06T01:17:52.764Z,0.90
2022-10-06T01:20:20.980Z,0.82
2022-10-06T01:22:55.595Z,1.17
2022-10-06T01:25:22.685Z,1.45
2022-10-06T01:27:53.743Z,0.80
2022-10-06T01:30:42.098Z,1.23
2022-10-06T01:33:09.293Z,1.62
2022-10-06T01:35:36.193Z,1.62
2022-10-06T01:38:03.153Z,1.15
2022-10-06T01:40:30.323Z,1.10
2022-10-06T01:42:57.446Z,0.98
2022-10-06T01:45:24.356Z,1.05
2022-10-06T01:47:51.416Z,0.90
2022-10-06T01:50:18.354Z,1.12
2022-10-06T01:52:45.302Z,1.62
2022-10-06T01:55:12.247Z,1.58
2022-10-06T01:57:41.366Z,1.20
2022-10-06T02:00:09.702Z,1.27
2022-10-06T02:02:36.705Z,1.48
2022-10-06T02:05:04.104Z,1.80
2022-10-06T02:07:31.003Z,1.40
2022-10-06T02:09:58.059Z,1.10
2022-10-06T02:12:24.993Z,1.70
2022-10-06T02:14:52.067Z,1.27
2022-10-06T02:17:18.934Z,1.30
2022-10-06T02:19:46.027Z,1.30
2022-10-06T02:22:12.918Z,1.20
2022-10-06T02:24:39.782Z,1.80
2022-10-06T02:27:07.050Z,1.25
2022-10-06T02:29:34.519Z,1.83
2022-10-06T02:32:01.488Z,1.17
2022-10-06T02:34:28.895Z,1.52
2022-10-06T02:36:56.039Z,1.85
2022-10-06T02:39:22.968Z,1.25
2022-10-06T02:41:49.873Z,1.67
2022-10-06T02:44:16.855Z,1.20
2022-10-06T02:46:43.767Z,1.70
2022-10-06T02:49:10.725Z,1.52
2022-10-06T02:51:37.683Z,1.50
2022-10-06T02:54:04.600Z,1.45
2022-10-06T02:56:31.517Z,1.65
2022-10-06T02:58:58.443Z,1.40
2022-10-06T03:01:27.750Z,2.05
2022-10-06T03:03:55.326Z,2.00
2022-10-06T03:06:26.630Z,2.85
2022-10-06T03:09:06.199Z,1.85
2022-10-06T03:11:35.554Z,1.27
2022-10-06T03:14:03.013Z,2.25
2022-10-06T03:16:36.060Z,1.90
2022-10-06T03:19:03.701Z,1.48
2022-10-06T03:21:33.027Z,2.25
2022-10-06T03:24:00.575Z,1.98
2022-10-06T03:26:30.646Z,1.87
2022-10-06T03:28:57.985Z,1.73
2022-10-06T03:31:25.643Z,1.73
2022-10-06T03:33:54.495Z,1.87
2022-10-06T03:36:23.012Z,1.48
2022-10-06T03:38:50.039Z,1.70
2022-10-06T03:41:19.838Z,1.52
2022-10-06T03:43:48.746Z,1.27
2022-10-06T03:46:21.598Z,1.65
2022-10-06T03:48:50.284Z,1.62
2022-10-06T03:51:23.502Z,1.52
2022-10-06T03:53:52.209Z,1.48
2022-10-06T03:56:30.744Z,1.90
2022-10-06T03:59:09.239Z,1.95
2022-10-06T04:01:39.497Z,2.28
2022-10-06T04:04:07.019Z,1.40
2022-10-06T04:06:37.064Z,2.12
2022-10-06T04:09:05.942Z,1.20
2022-10-06T04:11:35.971Z,1.75
2022-10-06T04:14:05.413Z,1.73
2022-10-06T04:16:38.364Z,1.10
2022-10-06T04:19:07.594Z,1.23
2022-10-06T04:21:39.214Z,1.27
2022-10-06T04:24:07.850Z,1.60
2022-10-06T04:26:38.995Z,1.80
2022-10-06T04:29:06.319Z,1.92
2022-10-06T04:31:39.189Z,1.48
2022-10-06T04:34:07.551Z,1.25
2022-10-06T04:36:41.169Z,1.55
2022-10-06T04:39:10.685Z,1.50
2022-10-06T04:41:41.161Z,1.37
2022-10-06T04:44:09.086Z,1.15
2022-10-06T04:46:44.771Z,1.40
2022-10-06T04:49:19.092Z,1.20
2022-10-06T04:51:47.609Z,1.25
2022-10-06T04:54:14.587Z,1.67
2022-10-06T04:56:41.469Z,1.10
2022-10-06T04:59:08.415Z,0.90
2022-10-06T05:01:36.900Z,0.65
2022-10-06T05:04:06.037Z,0.68
2022-10-06T05:06:35.901Z,0.70
2022-10-06T05:09:08.205Z,1.02
2022-10-06T05:11:35.690Z,0.80
2022-10-06T05:14:02.694Z,0.80
2022-10-06T05:16:31.199Z,0.80
2022-10-06T05:18:58.968Z,1.00
2022-10-06T05:21:28.581Z,1.10
2022-10-06T05:23:55.799Z,1.30
2022-10-06T05:26:25.088Z,1.62
2022-10-06T05:28:52.089Z,1.10
2022-10-06T05:31:28.000Z,1.30
2022-10-06T05:33:56.467Z,1.42
2022-10-06T05:36:25.816Z,1.45
2022-10-06T05:38:53.389Z,0.88
2022-10-06T05:41:24.106Z,0.88
2022-10-06T05:43:51.428Z,1.20
2022-10-06T05:46:20.943Z,1.20
2022-10-06T05:48:49.999Z,1.08
2022-10-06T05:51:19.193Z,1.30
2022-10-06T05:53:47.020Z,0.82
2022-10-06T05:56:34.793Z,1.00
2022-10-06T05:59:01.974Z,0.70
2022-10-06T06:01:32.983Z,1.05
2022-10-06T06:04:05.141Z,1.20
2022-10-06T06:06:32.927Z,0.80
2022-10-06T06:09:01.320Z,1.05
2022-10-06T06:11:31.461Z,0.80
2022-10-06T06:14:06.973Z,0.60
2022-10-06T06:16:34.925Z,1.02
2022-10-06T06:19:02.414Z,1.40
2022-10-06T06:21:29.800Z,0.82
2022-10-06T06:23:57.454Z,0.90
2022-10-06T06:26:30.462Z,0.88
2022-10-06T06:29:04.199Z,0.93
2022-10-06T06:31:34.226Z,1.05
2022-10-06T06:34:02.842Z,0.80
2022-10-06T06:36:36.087Z,0.82
2022-10-06T06:39:11.539Z,1.30
2022-10-06T06:41:41.182Z,1.10
2022-10-06T06:44:11.263Z,1.20
2022-10-06T06:46:39.211Z,1.20
2022-10-06T06:49:07.469Z,1.00
2022-10-06T06:51:40.370Z,1.40
2022-10-06T06:54:09.033Z,1.60
2022-10-06T06:56:36.855Z,1.20
2022-10-06T06:59:10.563Z,1.92
2022-10-06T07:01:39.155Z,2.20
2022-10-06T07:04:06.378Z,1.83
2022-10-06T07:06:36.994Z,2.12
2022-10-06T07:09:04.168Z,3.03
2022-10-06T07:11:36.788Z,2.80
2022-10-06T07:14:06.926Z,1.92
2022-10-06T07:16:53.318Z,2.45
2022-10-06T07:19:40.853Z,2.58
2022-10-06T07:22:35.073Z,3.87
2022-10-06T07:25:07.581Z,1.83
2022-10-06T07:27:43.839Z,1.85
2022-10-06T07:30:19.222Z,1.90
2022-10-06T07:32:47.735Z,1.60
2022-10-06T07:35:15.069Z,1.65
2022-10-06T07:37:42.099Z,1.52
2022-10-06T07:40:10.509Z,1.40
2022-10-06T07:42:48.473Z,1.80
2022-10-06T07:45:41.015Z,1.40
2022-10-06T07:48:20.464Z,1.60
2022-10-06T07:50:50.430Z,1.48
2022-10-06T07:53:18.797Z,1.77
2022-10-06T07:55:47.859Z,1.52
2022-10-06T07:58:20.638Z,1.70
2022-10-06T08:00:53.023Z,1.87
2022-10-06T08:03:20.475Z,1.67
2022-10-06T08:05:49.230Z,1.70
2022-10-06T08:08:16.815Z,2.35
2022-10-06T08:10:52.611Z,1.83
2022-10-06T08:13:19.546Z,2.30
2022-10-06T08:15:47.541Z,1.20
2022-10-06T08:18:33.779Z,2.25
2022-10-06T08:21:08.160Z,1.20
2022-10-06T08:23:42.253Z,1.35
2022-10-06T08:26:10.640Z,1.05
2022-10-06T08:28:38.377Z,1.08
2022-10-06T08:31:07.333Z,1.35
2022-10-06T08:33:36.033Z,1.30
2022-10-06T08:36:04.983Z,1.35
2022-10-06T08:38:32.391Z,1.60
2022-10-06T08:41:00.113Z,1.20
2022-10-06T08:43:28.886Z,1.20
2022-10-06T08:46:01.005Z,1.40
2022-10-06T08:48:38.740Z,1.35
2022-10-06T08:51:45.868Z,1.23
2022-10-06T08:54:17.815Z,0.80
2022-10-06T08:56:56.384Z,0.80
2022-10-06T08:59:23.398Z,0.60
2022-10-06T09:01:52.547Z,0.70
2022-10-06T09:04:31.150Z,0.43
2022-10-06T09:07:06.565Z,0.82
2022-10-06T09:09:53.783Z,1.12
2022-10-06T09:12:31.373Z,0.85
2022-10-06T09:15:06.622Z,0.75
2022-10-06T09:17:42.412Z,0.80
2022-10-06T09:20:20.605Z,1.10
2022-10-06T09:22:51.448Z,1.12
2022-10-06T09:25:22.484Z,0.80
2022-10-06T09:27:56.372Z,0.65
2022-10-06T09:30:24.338Z,0.73
2022-10-06T09:33:02.819Z,0.70
2022-10-06T09:35:32.172Z,1.30
2022-10-06T09:38:08.567Z,0.85
2022-10-06T09:40:37.279Z,0.98
2022-10-06T09:43:26.233Z,1.10
2022-10-06T09:46:13.434Z,1.77
2022-10-06T09:48:40.365Z,1.12
2022-10-06T09:51:12.860Z,1.10
2022-10-06T09:53:44.236Z,1.30
2022-10-06T09:56:19.395Z,1.55
2022-10-06T09:58:57.874Z,1.48
2022-10-06T10:01:31.838Z,1.62
2022-10-06T10:04:19.534Z,1.80
2022-10-06T10:06:48.035Z,1.65
2022-10-06T10:09:22.414Z,1.87
2022-10-06T10:12:29.894Z,1.50
2022-10-06T10:14:58.902Z,1.60
2022-10-06T10:17:42.721Z,1.52
2022-10-06T10:20:29.376Z,1.77
2022-10-06T10:22:59.587Z,1.67
2022-10-06T10:25:40.557Z,1.35
2022-10-06T10:28:20.371Z,1.58
2022-10-06T10:30:51.800Z,1.95
2022-10-06T10:33:59.217Z,1.40
2022-10-06T10:36:40.237Z,1.20
2022-10-06T10:39:14.211Z,1.10
2022-10-06T10:41:47.836Z,1.10
2022-10-06T10:44:26.259Z,1.08
2022-10-06T10:47:01.902Z,1.73
2022-10-06T10:49:32.852Z,1.37
2022-10-06T10:52:12.549Z,0.85
2022-10-06T10:55:00.202Z,1.00
2022-10-06T10:57:35.827Z,0.98
2022-10-06T11:00:11.695Z,1.08
2022-10-06T11:02:40.831Z,1.05
2022-10-06T11:05:28.214Z,1.00
2022-10-06T11:08:37.921Z,1.75
2022-10-06T11:11:15.707Z,0.98
2022-10-06T11:13:48.972Z,1.37
2022-10-06T11:16:30.880Z,1.15
2022-10-06T11:19:35.337Z,1.17
2022-10-06T11:22:14.906Z,2.08
2022-10-06T11:25:24.540Z,1.55
2022-10-06T11:28:14.774Z,1.30
2022-10-06T11:30:58.512Z,1.45
2022-10-06T11:33:49.240Z,1.05
2022-10-06T11:36:35.051Z,1.30
2022-10-06T11:39:12.649Z,1.60
2022-10-06T11:41:45.446Z,1.27
2022-10-06T11:44:33.597Z,1.23
2022-10-06T11:47:08.152Z,2.17
2022-10-06T11:49:51.739Z,1.45
2022-10-06T11:52:18.804Z,1.52
2022-10-06T11:54:51.939Z,1.75
2022-10-06T11:57:31.038Z,1.27
2022-10-06T12:00:16.098Z,1.42
2022-10-06T12:02:45.639Z,1.98
2022-10-06T12:08:35.712Z,2.55
2022-10-06T12:11:03.035Z,2.55
2022-10-06T12:19:41.508Z,2.08
2022-10-06T12:22:26.206Z,2.65
2022-10-06T12:25:10.666Z,1.98
2022-10-06T12:28:03.019Z,1.83
2022-10-06T12:31:07.972Z,2.33
2022-10-06T12:33:40.676Z,2.22
2022-10-06T12:36:28.880Z,2.33
2022-10-06T12:39:02.518Z,2.40
2022-10-06T12:41:58.595Z,2.40
2022-10-06T12:44:45.604Z,1.87
2022-10-06T12:47:34.836Z,2.17
2022-10-06T12:50:13.154Z,2.40
2022-10-06T12:52:52.308Z,2.42
2022-10-06T12:55:44.345Z,2.75
2022-10-06T12:58:28.924Z,2.50
2022-10-06T13:01:05.315Z,2.78
2022-10-06T13:03:32.481Z,2.08
2022-10-06T13:06:03.293Z,2.40
2022-10-06T13:08:33.547Z,2.50
2022-10-06T13:11:12.692Z,1.90
2022-10-06T13:13:51.452Z,2.10
2022-10-06T13:16:22.519Z,2.58
2022-10-06T13:18:53.802Z,2.15
2022-10-06T13:21:21.026Z,2.70
2022-10-06T13:23:48.850Z,2.45
2022-10-06T13:26:18.588Z,2.85
2022-10-06T13:28:47.092Z,2.62
2022-10-06T13:31:28.440Z,2.20
2022-10-06T13:34:06.068Z,2.22
2022-10-06T13:36:35.651Z,2.70
2022-10-06T13:39:12.453Z,1.95
2022-10-06T13:42:04.779Z,2.62
2022-10-06T13:44:36.397Z,2.15
2022-10-06T13:47:08.069Z,2.10
2022-10-06T13:49:47.209Z,2.10
2022-10-06T13:52:38.674Z,2.25
2022-10-06T13:55:22.110Z,2.33
2022-10-06T13:58:06.544Z,2.20
2022-10-06T14:00:56.097Z,2.40
2022-10-06T14:03:28.974Z,2.03
2022-10-06T14:06:17.845Z,1.98
2022-10-06T14:08:56.563Z,1.58
2022-10-06T14:11:26.564Z,2.12
2022-10-06T14:14:00.497Z,2.22
2022-10-06T14:16:29.059Z,1.60
2022-10-06T14:19:00.291Z,2.30
2022-10-06T14:21:36.880Z,3.05
2022-10-06T14:24:27.273Z,2.00
2022-10-06T14:26:59.996Z,2.50
2022-10-06T14:29:26.897Z,2.22
2022-10-06T14:31:53.822Z,1.77
2022-10-06T14:34:22.230Z,2.42
2022-10-06T14:36:55.369Z,1.90
2022-10-06T14:39:22.655Z,1.77
2022-10-06T14:41:49.763Z,2.00
2022-10-06T14:44:16.787Z,1.70
2022-10-06T14:46:48.292Z,2.17
2022-10-06T14:49:15.942Z,1.92
2022-10-06T14:51:44.165Z,2.00
2022-10-06T14:54:11.960Z,2.50
2022-10-06T14:56:40.522Z,2.33
2022-10-06T14:59:12.053Z,2.30
2022-10-06T15:01:42.793Z,2.00
2022-10-06T15:04:13.945Z,2.65
2022-10-06T15:07:00.412Z,2.55
2022-10-06T15:09:30.572Z,2.95
2022-10-06T15:11:57.897Z,2.87
2022-10-06T15:14:24.880Z,3.67
2022-10-06T15:16:52.064Z,2.37
2022-10-06T15:19:19.102Z,2.75
2022-10-06T15:21:46.297Z,2.97
2022-10-06T15:24:15.911Z,2.97
2022-10-06T15:27:02.216Z,3.15
2022-10-06T15:29:29.654Z,3.20
2022-10-06T15:31:58.681Z,3.05
2022-10-06T15:34:31.708Z,2.90
2022-10-06T15:36:59.304Z,3.28
2022-10-06T15:39:28.596Z,2.75
2022-10-06T15:41:55.649Z,3.08
2022-10-06T15:44:23.008Z,2.37
2022-10-06T15:46:55.407Z,2.22
2022-10-06T15:49:25.032Z,1.83
2022-10-06T15:51:54.204Z,1.92
2022-10-06T15:54:29.279Z,2.33
2022-10-06T15:56:58.691Z,1.75
2022-10-06T15:59:27.228Z,1.80
2022-10-06T16:01:58.134Z,1.58
2022-10-06T16:04:39.086Z,2.12
2022-10-06T16:07:14.272Z,2.30
2022-10-06T16:09:43.733Z,1.70
2022-10-06T16:12:13.187Z,1.85
2022-10-06T16:14:40.387Z,1.25
2022-10-06T16:17:09.450Z,1.70
2022-10-06T16:19:42.834Z,2.60
2022-10-06T16:22:15.253Z,1.85
2022-10-06T16:24:42.447Z,2.80
2022-10-06T16:27:14.189Z,2.22
2022-10-06T16:29:41.329Z,2.42
2022-10-06T16:32:08.327Z,2.10
2022-10-06T16:34:35.295Z,2.40
2022-10-06T16:37:02.228Z,3.55
2022-10-06T16:39:29.241Z,2.45
2022-10-06T16:41:56.239Z,2.33
2022-10-06T16:44:23.236Z,2.30
2022-10-06T16:46:50.227Z,1.95
2022-10-06T16:49:17.262Z,2.22
2022-10-06T16:51:48.011Z,2.83
2022-10-06T16:54:17.357Z,2.80
2022-10-06T16:56:51.906Z,2.30
2022-10-06T16:59:21.165Z,2.25
2022-10-06T17:01:48.953Z,1.60
2022-10-06T17:04:24.277Z,2.17
2022-10-06T17:06:53.525Z,2.65
2022-10-06T17:09:24.940Z,2.22
2022-10-06T17:11:52.967Z,2.92
2022-10-06T17:14:21.465Z,2.10
2022-10-06T17:16:50.953Z,2.75
2022-10-06T17:19:19.934Z,2.35
2022-10-06T17:21:49.553Z,2.47
2022-10-06T17:24:20.315Z,2.70
2022-10-06T17:26:49.213Z,2.22
2022-10-06T17:29:19.104Z,1.77
2022-10-06T17:31:47.031Z,1.98
2022-10-06T17:34:20.719Z,2.80
2022-10-06T17:36:51.038Z,1.77
2022-10-06T17:39:20.910Z,2.35
2022-10-06T17:41:49.589Z,1.80
2022-10-06T17:44:23.433Z,1.90
2022-10-06T17:46:53.297Z,1.98
2022-10-06T17:49:21.826Z,1.95
2022-10-06T17:51:49.810Z,1.90
2022-10-06T17:54:20.267Z,2.15
2022-10-06T17:56:49.358Z,1.27
2022-10-06T17:59:25.924Z,1.83
2022-10-06T18:01:56.944Z,1.15
2022-10-06T18:04:24.011Z,1.00
2022-10-06T18:06:53.102Z,1.42
2022-10-06T18:09:20.488Z,1.35
2022-10-06T18:11:55.714Z,1.42
2022-10-06T18:14:26.047Z,1.15
2022-10-06T18:16:57.966Z,1.27
2022-10-06T18:19:35.988Z,1.15
2022-10-06T18:22:12.951Z,1.10
2022-10-06T18:24:40.436Z,1.08
2022-10-06T18:27:08.355Z,1.50
2022-10-06T18:29:37.907Z,1.23
2022-10-06T18:36:12.373Z,1.45
2022-10-06T18:37:41.773Z,1.30
2022-10-06T18:40:10.158Z,1.40
2022-10-06T18:42:37.647Z,1.45
2022-10-06T18:45:24.261Z,1.40
2022-10-06T18:48:10.047Z,1.55
2022-10-06T18:50:37.127Z,2.25
2022-10-06T18:53:04.463Z,1.75
2022-10-06T18:55:32.174Z,1.83
2022-10-06T18:57:59.236Z,1.95
2022-10-06T19:00:26.280Z,1.67
2022-10-06T19:02:55.534Z,1.60
2022-10-06T19:05:23.506Z,1.40
2022-10-06T19:07:53.802Z,2.15
2022-10-06T19:10:20.859Z,1.30
2022-10-06T19:12:48.522Z,1.27
2022-10-06T19:15:20.349Z,1.83
2022-10-06T19:17:47.902Z,1.17
2022-10-06T19:20:14.986Z,1.10
2022-10-06T19:22:43.479Z,1.30
2022-10-06T19:25:11.311Z,1.48
2022-10-06T19:27:38.218Z,1.50
2022-10-06T19:30:06.621Z,1.40
2022-10-06T19:32:33.919Z,1.50
2022-10-06T19:35:00.947Z,1.40
2022-10-06T19:37:30.249Z,1.20
2022-10-06T19:39:57.207Z,1.58
2022-10-06T19:42:53.523Z,1.12
2022-10-06T19:45:21.102Z,1.58
2022-10-06T19:47:48.676Z,1.27
2022-10-06T19:50:17.149Z,1.50
2022-10-06T19:52:45.258Z,1.20
2022-10-06T19:55:12.441Z,1.40
2022-10-06T19:57:39.363Z,0.88
2022-10-06T20:00:07.542Z,1.62
2022-10-06T20:02:37.404Z,0.85
2022-10-06T20:05:07.164Z,1.40
2022-10-06T20:07:34.095Z,1.05
2022-10-06T20:10:00.964Z,1.08
2022-10-06T20:12:28.741Z,0.82
2022-10-06T20:14:55.974Z,0.88
2022-10-06T20:17:23.247Z,1.15
2022-10-06T20:19:56.687Z,1.87
2022-10-06T20:22:25.346Z,1.77
2022-10-06T20:24:52.375Z,1.70
2022-10-06T20:27:19.727Z,1.70
2022-10-06T20:29:46.835Z,1.45
2022-10-06T20:32:14.249Z,1.30
2022-10-06T20:34:41.306Z,1.62
2022-10-06T20:37:08.286Z,1.50
2022-10-06T20:39:54.052Z,1.62
2022-10-06T20:42:21.666Z,1.40
2022-10-06T20:44:48.918Z,1.73
2022-10-06T20:47:16.688Z,1.00
2022-10-06T20:49:44.663Z,1.75
2022-10-06T20:52:14.858Z,1.48
2022-10-06T20:54:42.143Z,1.20
2022-10-06T20:57:09.680Z,0.90
2022-10-06T20:59:37.741Z,1.35
2022-10-06T21:02:05.955Z,1.12
2022-10-06T21:04:34.587Z,1.00
2022-10-06T21:07:04.144Z,1.02
2022-10-06T21:09:31.178Z,0.93
2022-10-06T21:11:58.198Z,0.77
2022-10-06T21:14:25.368Z,0.80
2022-10-06T21:16:52.777Z,1.00
2022-10-06T21:19:20.042Z,0.90
2022-10-06T21:21:53.410Z,0.77
2022-10-06T21:24:20.883Z,0.60
2022-10-06T21:26:48.888Z,0.75
2022-10-06T21:29:16.429Z,0.30
2022-10-06T21:31:44.937Z,0.40
2022-10-06T21:34:12.275Z,0.30
2022-10-06T21:36:39.257Z,0.30
2022-10-06T21:39:06.787Z,0.43
2022-10-06T21:41:38.982Z,0.50
2022-10-06T21:44:13.361Z,0.30
2022-10-06T21:46:53.924Z,0.37
2022-10-06T21:49:25.602Z,0.20
2022-10-06T21:51:55.041Z,0.30
2022-10-06T21:54:23.529Z,0.20
2022-10-06T21:56:50.961Z,0.40
2022-10-06T21:59:18.571Z,0.20
2022-10-06T22:01:46.783Z,0.50
2022-10-06T22:04:14.918Z,0.30
2022-10-06T22:06:43.658Z,0.10
2022-10-06T22:09:14.511Z,0.10
2022-10-06T22:11:41.924Z,0.25
2022-10-06T22:14:12.493Z,0.20
2022-10-06T22:16:39.777Z,0.10
2022-10-06T22:19:09.507Z,0.10
2022-10-06T22:21:38.953Z,0.20
2022-10-06T22:24:11.136Z,0.20
2022-10-06T22:26:40.012Z,0.20
2022-10-06T22:29:09.719Z,0.20
2022-10-06T22:31:39.351Z,0.15
2022-10-06T22:34:07.563Z,0.20
2022-10-06T22:36:35.038Z,0.20
2022-10-06T22:39:02.471Z,0.17
2022-10-06T22:41:29.853Z,0.10
2022-10-06T22:43:58.633Z,0.37
2022-10-06T22:46:28.001Z,0.20
2022-10-06T22:48:55.581Z,0.20
2022-10-06T22:51:22.682Z,0.15
2022-10-06T22:53:58.259Z,0.20
2022-10-06T22:56:26.870Z,0.10
2022-10-06T22:58:54.053Z,0.68
2022-10-06T23:01:21.515Z,0.20
2022-10-06T23:03:48.567Z,0.20
2022-10-06T23:06:17.630Z,0.15
2022-10-06T23:08:44.883Z,0.10
2022-10-06T23:11:14.404Z,0.10
2022-10-06T23:13:43.251Z,0.20
2022-10-06T23:16:12.523Z,0.10
2022-10-06T23:18:40.704Z,0.22
2022-10-06T23:21:10.255Z,0.13
2022-10-06T23:23:37.560Z,0.30
2022-10-06T23:26:09.321Z,0.20
2022-10-06T23:28:36.604Z,0.20
2022-10-06T23:31:09.527Z,0.10
2022-10-06T23:33:36.682Z,0.30
2022-10-06T23:36:09.461Z,0.60
2022-10-06T23:38:37.944Z,0.55
2022-10-06T23:41:06.009Z,0.50
2022-10-06T23:43:33.216Z,0.73
2022-10-06T23:46:00.378Z,0.80
2022-10-06T23:48:27.364Z,0.73
2022-10-06T23:51:05.488Z,0.47
2022-10-06T23:53:32.888Z,0.47
2022-10-06T23:55:59.836Z,0.75
2022-10-06T23:58:27.897Z,0.70
